createdAt,value
2023-05-11T00:01:13.663Z,14.51
2023-05-11T00:03:45.342Z,14.45
2023-05-11T00:06:17.204Z,14.38
2023-05-11T00:08:48.671Z,14.36
2023-05-11T00:11:20.448Z,14.34
2023-05-11T00:13:51.902Z,14.34
2023-05-11T00:16:23.643Z,14.33
2023-05-11T00:18:55.231Z,14.29
2023-05-11T00:21:27.164Z,14.25
2023-05-11T00:23:59.053Z,14.22
2023-05-11T00:26:30.549Z,14.18
2023-05-11T00:29:02.058Z,14.10
2023-05-11T00:31:33.570Z,14.02
2023-05-11T00:34:05.244Z,13.93
2023-05-11T00:36:36.687Z,13.91
2023-05-11T00:39:08.324Z,13.88
2023-05-11T00:41:39.765Z,13.83
2023-05-11T00:44:11.540Z,13.69
2023-05-11T00:46:43.008Z,13.60
2023-05-11T00:49:14.961Z,13.54
2023-05-11T00:51:46.425Z,13.51
2023-05-11T00:54:18.235Z,13.52
2023-05-11T00:56:49.726Z,13.51
2023-05-11T00:59:21.420Z,13.47
2023-05-11T01:01:53.146Z,13.42
2023-05-11T01:04:24.622Z,13.38
2023-05-11T01:06:56.307Z,13.32
2023-05-11T01:09:27.770Z,13.25
2023-05-11T01:11:59.522Z,13.23
2023-05-11T01:14:30.983Z,13.20
2023-05-11T01:17:02.835Z,13.11
2023-05-11T01:19:34.335Z,13.05
2023-05-11T01:22:06.357Z,13.00
2023-05-11T01:24:37.830Z,13.04
2023-05-11T01:27:09.307Z,13.05
2023-05-11T01:29:40.784Z,12.99
2023-05-11T01:32:12.263Z,12.92
2023-05-11T01:34:44.087Z,12.89
2023-05-11T01:37:15.564Z,12.88
2023-05-11T01:39:47.320Z,12.82
2023-05-11T01:42:18.793Z,12.78
2023-05-11T01:44:50.637Z,12.73
2023-05-11T01:47:22.091Z,12.66
2023-05-11T01:49:53.560Z,12.65
2023-05-11T01:52:25.012Z,12.62
2023-05-11T01:54:56.789Z,12.59
2023-05-11T01:57:28.242Z,12.56
2023-05-11T02:00:00.011Z,12.54
2023-05-11T02:02:31.560Z,12.48
2023-05-11T02:05:03.303Z,12.47
2023-05-11T02:07:34.823Z,12.46
2023-05-11T02:10:06.632Z,12.44
2023-05-11T02:12:38.094Z,12.42
2023-05-11T02:15:09.568Z,12.38
2023-05-11T02:17:41.058Z,12.36
2023-05-11T02:20:12.515Z,12.32
2023-05-11T02:22:43.971Z,12.26
2023-05-11T02:25:15.454Z,12.19
2023-05-11T02:27:47.316Z,12.14
2023-05-11T02:30:18.918Z,12.09
2023-05-11T02:32:50.957Z,12.07
2023-05-11T02:35:22.444Z,12.06
2023-05-11T02:37:54.257Z,12.04
2023-05-11T02:40:26.035Z,12.03
2023-05-11T02:42:57.509Z,12.02
2023-05-11T02:45:28.978Z,12.00
2023-05-11T02:48:00.510Z,12.00
2023-05-11T02:50:32.357Z,11.97
2023-05-11T02:53:03.839Z,11.95
2023-05-11T02:55:35.599Z,11.95
2023-05-11T02:58:07.214Z,11.89
2023-05-11T03:00:38.800Z,11.87
2023-05-11T03:03:10.333Z,11.84
2023-05-11T03:05:42.362Z,11.87
2023-05-11T03:08:13.851Z,11.83
2023-05-11T03:10:45.325Z,11.80
2023-05-11T03:13:16.958Z,11.79
2023-05-11T03:15:48.719Z,11.76
2023-05-11T03:18:20.488Z,11.72
2023-05-11T03:20:51.968Z,11.69
2023-05-11T03:23:23.784Z,11.66
2023-05-11T03:25:55.282Z,11.69
2023-05-11T03:28:26.781Z,11.69
2023-05-11T03:30:58.275Z,11.67
2023-05-11T03:33:30.281Z,11.66
2023-05-11T03:36:01.756Z,11.70
2023-05-11T03:38:33.359Z,11.71
2023-05-11T03:41:04.820Z,11.71
2023-05-11T03:43:36.285Z,11.67
2023-05-11T03:46:07.795Z,11.66
2023-05-11T03:48:39.321Z,11.71
2023-05-11T03:51:11.193Z,11.71
2023-05-11T03:53:42.649Z,11.74
2023-05-11T03:56:14.362Z,11.78
2023-05-11T03:58:46.889Z,11.80
2023-05-11T04:01:18.702Z,11.89
2023-05-11T04:03:50.341Z,11.92
2023-05-11T04:06:22.254Z,11.99
2023-05-11T04:08:53.690Z,11.99
2023-05-11T04:11:25.470Z,12.07
2023-05-11T04:13:56.909Z,12.11
2023-05-11T04:16:28.656Z,12.14
2023-05-11T04:19:00.207Z,12.25
2023-05-11T04:21:32.062Z,12.32
2023-05-11T04:24:03.525Z,12.43
2023-05-11T04:26:35.024Z,12.42
2023-05-11T04:29:06.466Z,12.46
2023-05-11T04:31:37.974Z,12.55
2023-05-11T04:34:09.791Z,12.63
2023-05-11T04:36:41.271Z,12.69
2023-05-11T04:39:12.750Z,12.82
2023-05-11T04:41:44.300Z,12.99
2023-05-11T04:44:16.145Z,13.03
2023-05-11T04:46:47.743Z,13.10
2023-05-11T04:49:19.538Z,13.28
2023-05-11T04:51:51.377Z,13.30
2023-05-11T04:54:24.948Z,13.41
2023-05-11T04:56:56.438Z,13.50
2023-05-11T04:59:27.917Z,13.46
2023-05-11T05:02:00.003Z,13.63
2023-05-11T05:04:32.942Z,13.79
2023-05-11T05:07:05.562Z,13.99
2023-05-11T05:09:37.068Z,14.05
2023-05-11T05:12:08.915Z,14.20
2023-05-11T05:14:40.364Z,14.29
2023-05-11T05:17:12.202Z,14.44
2023-05-11T05:19:43.707Z,14.57
2023-05-11T05:22:15.591Z,14.74
2023-05-11T05:24:47.377Z,14.65
2023-05-11T05:27:18.903Z,14.88
2023-05-11T05:29:50.765Z,14.85
2023-05-11T05:32:22.256Z,15.28
2023-05-11T05:34:53.721Z,15.41
2023-05-11T05:37:25.174Z,15.70
2023-05-11T05:39:57.071Z,15.60
2023-05-11T05:42:28.546Z,15.63
2023-05-11T05:45:00.207Z,15.92
2023-05-11T05:47:31.696Z,16.08
2023-05-11T05:50:03.534Z,16.00
2023-05-11T05:52:35.083Z,16.22
2023-05-11T05:55:06.898Z,16.41
2023-05-11T05:57:38.396Z,16.49
2023-05-11T06:00:09.859Z,16.54
2023-05-11T06:02:41.440Z,16.84
2023-05-11T06:05:13.038Z,16.94
2023-05-11T06:07:51.512Z,17.08
2023-05-11T06:10:32.426Z,17.02
2023-05-11T06:13:04.050Z,17.12
2023-05-11T06:15:35.552Z,17.19
2023-05-11T06:18:07.259Z,17.40
2023-05-11T06:20:38.792Z,17.50
2023-05-11T06:23:10.591Z,17.62
2023-05-11T06:25:42.425Z,17.91
2023-05-11T06:28:13.927Z,17.98
2023-05-11T06:30:45.457Z,18.59
2023-05-11T06:33:16.955Z,18.66
2023-05-11T06:35:48.606Z,18.76
2023-05-11T06:38:20.093Z,18.78
2023-05-11T06:40:51.594Z,18.43
2023-05-11T06:43:23.047Z,18.49
2023-05-11T06:45:54.790Z,19.03
2023-05-11T06:48:26.322Z,19.16
2023-05-11T06:50:57.787Z,19.29
2023-05-11T06:53:29.608Z,19.39
2023-05-11T06:56:01.085Z,19.38
2023-05-11T06:58:32.877Z,19.31
2023-05-11T07:01:04.349Z,19.66
2023-05-11T07:03:35.836Z,19.96
2023-05-11T07:06:07.337Z,19.90
2023-05-11T07:08:39.174Z,19.75
2023-05-11T07:11:10.631Z,19.87
2023-05-11T07:13:42.264Z,20.12
2023-05-11T07:16:13.720Z,20.59
2023-05-11T07:18:45.491Z,20.68
2023-05-11T07:21:17.251Z,20.62
2023-05-11T07:23:49.102Z,20.61
2023-05-11T07:26:20.889Z,20.75
2023-05-11T07:28:52.338Z,20.86
2023-05-11T07:31:24.265Z,20.73
2023-05-11T07:33:55.735Z,20.85
2023-05-11T07:36:27.671Z,21.46
2023-05-11T07:38:59.191Z,21.23
2023-05-11T07:41:31.079Z,21.24
2023-05-11T07:44:02.609Z,21.53
2023-05-11T07:46:34.215Z,21.48
2023-05-11T07:49:15.595Z,21.71
2023-05-11T07:51:52.483Z,21.62
2023-05-11T07:54:24.417Z,21.73
2023-05-11T07:56:55.941Z,21.20
2023-05-11T07:59:27.743Z,21.47
2023-05-11T08:01:59.227Z,21.95
2023-05-11T08:04:30.735Z,22.05
2023-05-11T08:07:02.218Z,22.61
2023-05-11T08:09:33.716Z,22.94
2023-05-11T08:12:05.169Z,23.50
2023-05-11T08:14:36.965Z,23.04
2023-05-11T08:17:08.482Z,22.89
2023-05-11T08:19:39.998Z,23.44
2023-05-11T08:22:11.479Z,23.29
2023-05-11T08:24:43.214Z,23.63
2023-05-11T08:27:14.964Z,23.60
2023-05-11T08:29:46.537Z,23.61
2023-05-11T08:32:18.417Z,24.08
2023-05-11T08:34:50.032Z,23.93
2023-05-11T08:37:21.899Z,23.99
2023-05-11T08:39:53.363Z,24.10
2023-05-11T08:42:25.268Z,23.96
2023-05-11T08:44:56.709Z,23.64
2023-05-11T08:47:28.467Z,23.56
2023-05-11T08:50:00.183Z,24.09
2023-05-11T08:52:31.710Z,23.96
2023-05-11T08:55:03.546Z,24.39
2023-05-11T08:57:35.027Z,24.12
2023-05-11T09:00:06.880Z,24.19
2023-05-11T09:02:38.384Z,24.60
2023-05-11T09:05:10.239Z,24.66
2023-05-11T09:07:41.723Z,25.03
2023-05-11T09:10:14.057Z,24.50
2023-05-11T09:12:45.625Z,24.75
2023-05-11T09:15:17.081Z,25.05
2023-05-11T09:17:48.559Z,25.46
2023-05-11T09:20:20.298Z,25.07
2023-05-11T09:22:52.028Z,24.39
2023-05-11T09:25:23.774Z,24.52
2023-05-11T09:27:55.238Z,24.87
2023-05-11T09:30:26.750Z,25.10
2023-05-11T09:32:58.676Z,25.00
2023-05-11T09:35:30.365Z,25.21
2023-05-11T09:38:02.227Z,25.06
2023-05-11T09:40:34.795Z,25.64
2023-05-11T09:43:06.818Z,24.46
2023-05-11T09:45:38.516Z,24.86
2023-05-11T09:48:10.321Z,25.41
2023-05-11T09:50:41.830Z,24.83
2023-05-11T09:53:13.645Z,24.86
2023-05-11T09:55:45.116Z,24.93
2023-05-11T09:58:16.911Z,25.40
2023-05-11T10:00:48.437Z,25.78
2023-05-11T10:03:20.472Z,25.80
2023-05-11T10:05:52.009Z,26.38
2023-05-11T10:08:23.478Z,26.25
2023-05-11T10:10:55.388Z,26.61
2023-05-11T10:13:26.850Z,26.61
2023-05-11T10:15:58.562Z,27.26
2023-05-11T10:18:30.199Z,27.19
2023-05-11T10:21:02.011Z,26.88
2023-05-11T10:23:33.465Z,26.81
2023-05-11T10:26:05.235Z,27.31
2023-05-11T10:28:36.674Z,27.03
2023-05-11T10:31:08.144Z,26.54
2023-05-11T10:33:39.635Z,26.46
2023-05-11T10:36:11.335Z,26.56
2023-05-11T10:38:42.865Z,27.16
2023-05-11T10:41:14.340Z,25.65
2023-05-11T10:43:46.200Z,25.12
2023-05-11T10:46:17.731Z,25.73
2023-05-11T10:48:49.596Z,25.23
2023-05-11T10:51:21.063Z,24.63
2023-05-11T10:53:52.820Z,25.07
2023-05-11T10:56:24.319Z,25.80
2023-05-11T10:58:56.192Z,26.50
2023-05-11T11:01:27.722Z,27.77
2023-05-11T11:03:59.785Z,27.67
2023-05-11T11:06:31.264Z,27.22
2023-05-11T11:09:02.906Z,26.02
2023-05-11T11:11:34.417Z,26.31
2023-05-11T11:14:05.925Z,25.27
2023-05-11T11:16:37.508Z,25.82
2023-05-11T11:19:09.083Z,26.97
2023-05-11T11:21:40.628Z,27.19
2023-05-11T11:24:12.094Z,26.13
2023-05-11T11:26:43.948Z,26.17
2023-05-11T11:29:15.469Z,26.40
2023-05-11T11:31:47.300Z,25.58
2023-05-11T11:34:18.782Z,25.28
2023-05-11T11:36:50.660Z,25.27
2023-05-11T11:39:22.116Z,26.90
2023-05-11T11:41:53.963Z,26.50
2023-05-11T11:44:25.422Z,25.73
2023-05-11T11:46:57.446Z,25.04
2023-05-11T11:49:28.958Z,25.05
2023-05-11T11:52:00.728Z,25.39
2023-05-11T11:54:32.281Z,25.83
2023-05-11T11:57:04.090Z,26.50
2023-05-11T11:59:35.558Z,26.30
2023-05-11T12:02:07.294Z,26.81
2023-05-11T12:04:38.904Z,26.24
2023-05-11T12:07:10.419Z,26.84
2023-05-11T12:09:42.248Z,27.07
2023-05-11T12:12:13.725Z,26.89
2023-05-11T12:14:45.510Z,27.79
2023-05-11T12:17:16.960Z,27.36
2023-05-11T12:19:48.659Z,26.83
2023-05-11T12:22:20.098Z,27.08
2023-05-11T12:24:51.709Z,27.78
2023-05-11T12:27:23.469Z,27.80
2023-05-11T12:29:55.361Z,26.76
2023-05-11T12:32:27.201Z,26.61
2023-05-11T12:34:58.702Z,26.77
2023-05-11T12:37:30.481Z,26.33
2023-05-11T12:40:01.953Z,26.18
2023-05-11T12:42:35.218Z,26.27
2023-05-11T12:45:06.787Z,26.12
2023-05-11T12:47:38.286Z,25.86
2023-05-11T12:50:09.820Z,25.51
2023-05-11T12:52:41.284Z,25.90
2023-05-11T12:55:12.748Z,26.23
2023-05-11T12:57:44.591Z,26.65
2023-05-11T13:00:16.029Z,26.36
2023-05-11T13:02:47.563Z,26.61
2023-05-11T13:05:20.169Z,25.89
2023-05-11T13:07:51.974Z,26.92
2023-05-11T13:10:23.754Z,27.79
2023-05-11T13:12:55.228Z,27.73
2023-05-11T13:15:26.983Z,27.58
2023-05-11T13:17:58.637Z,28.13
2023-05-11T13:20:30.359Z,26.26
2023-05-11T13:23:01.816Z,25.56
2023-05-11T13:25:33.557Z,25.19
2023-05-11T13:28:05.044Z,25.16
2023-05-11T13:30:36.586Z,24.68
2023-05-11T13:33:08.128Z,23.82
2023-05-11T13:35:39.624Z,23.90
2023-05-11T13:38:11.127Z,25.07
2023-05-11T13:40:42.629Z,26.90
2023-05-11T13:43:14.139Z,26.97
2023-05-11T13:45:45.602Z,26.46
2023-05-11T13:48:17.502Z,25.91
2023-05-11T13:50:49.016Z,26.82
2023-05-11T13:53:20.845Z,26.50
2023-05-11T13:55:52.314Z,26.99
2023-05-11T13:58:24.229Z,25.91
2023-05-11T14:01:07.238Z,25.12
2023-05-11T14:03:40.011Z,25.38
2023-05-11T14:06:11.542Z,26.28
2023-05-11T14:08:43.009Z,26.79
2023-05-11T14:11:14.741Z,26.88
2023-05-11T14:13:46.200Z,27.79
2023-05-11T14:16:17.923Z,27.15
2023-05-11T14:18:49.434Z,27.39
2023-05-11T14:21:21.351Z,26.64
2023-05-11T14:24:09.840Z,25.83
2023-05-11T14:26:42.702Z,24.60
2023-05-11T14:29:14.164Z,25.00
2023-05-11T14:31:46.133Z,26.23
2023-05-11T14:34:17.622Z,27.18
2023-05-11T14:36:49.405Z,27.06
2023-05-11T14:39:21.174Z,27.40
2023-05-11T14:41:52.633Z,27.23
2023-05-11T14:44:24.717Z,27.41
2023-05-11T14:46:56.228Z,28.37
2023-05-11T14:49:27.876Z,27.71
2023-05-11T14:51:59.377Z,27.93
2023-05-11T14:54:31.057Z,27.07
2023-05-11T14:57:02.494Z,26.65
2023-05-11T14:59:33.953Z,26.98
2023-05-11T15:02:05.561Z,27.10
2023-05-11T15:04:37.112Z,27.61
2023-05-11T15:07:08.570Z,26.83
2023-05-11T15:09:40.042Z,26.15
2023-05-11T15:12:11.532Z,25.58
2023-05-11T15:14:42.968Z,25.88
2023-05-11T15:17:14.854Z,25.66
2023-05-11T15:19:46.325Z,25.12
2023-05-11T15:22:18.036Z,24.77
2023-05-11T15:24:49.479Z,25.05
2023-05-11T15:27:21.272Z,24.91
2023-05-11T15:29:52.729Z,24.74
2023-05-11T15:32:24.552Z,25.11
2023-05-11T15:34:59.836Z,26.04
2023-05-11T15:37:31.788Z,26.00
2023-05-11T15:40:03.260Z,25.64
2023-05-11T15:42:34.727Z,25.35
2023-05-11T15:45:06.570Z,25.22
2023-05-11T15:47:38.082Z,25.77
2023-05-11T15:50:10.868Z,25.26
2023-05-11T15:52:42.357Z,24.66
2023-05-11T15:55:13.852Z,24.43
2023-05-11T15:57:45.316Z,24.26
2023-05-11T16:00:17.020Z,23.87
2023-05-11T16:02:48.650Z,23.76
2023-05-11T16:05:20.386Z,23.87
2023-05-11T16:07:51.855Z,23.74
2023-05-11T16:10:23.715Z,23.03
2023-05-11T16:12:57.731Z,23.82
2023-05-11T16:15:30.509Z,23.52
2023-05-11T16:18:04.615Z,23.75
2023-05-11T16:20:36.708Z,23.69
2023-05-11T16:23:08.510Z,23.63
2023-05-11T16:25:39.971Z,23.74
2023-05-11T16:28:11.626Z,23.81
2023-05-11T16:30:43.082Z,23.76
2023-05-11T16:33:14.634Z,23.40
2023-05-11T16:35:46.251Z,22.25
2023-05-11T16:38:18.025Z,23.51
2023-05-11T16:40:49.500Z,23.49
2023-05-11T16:43:21.523Z,23.40
2023-05-11T16:45:53.389Z,23.35
2023-05-11T16:48:24.859Z,23.21
2023-05-11T16:50:56.548Z,23.17
2023-05-11T16:53:28.004Z,23.25
2023-05-11T16:55:59.874Z,22.99
2023-05-11T16:58:31.345Z,22.88
2023-05-11T17:01:03.359Z,22.92
2023-05-11T17:03:34.843Z,22.68
2023-05-11T17:06:06.630Z,22.56
2023-05-11T17:08:38.071Z,22.54
2023-05-11T17:11:09.865Z,22.30
2023-05-11T17:13:41.917Z,22.27
2023-05-11T17:16:13.753Z,22.25
2023-05-11T17:18:45.558Z,22.18
2023-05-11T17:21:17.073Z,22.22
2023-05-11T17:23:48.893Z,22.25
2023-05-11T17:26:21.197Z,22.18
2023-05-11T17:28:56.672Z,22.04
2023-05-11T17:31:28.258Z,22.01
2023-05-11T17:34:00.312Z,21.90
2023-05-11T17:36:31.830Z,21.79
2023-05-11T17:39:03.468Z,21.72
2023-05-11T17:41:34.918Z,21.70
2023-05-11T17:44:06.561Z,21.66
2023-05-11T17:46:38.037Z,21.65
2023-05-11T17:49:09.492Z,21.58
2023-05-11T17:51:40.952Z,21.45
2023-05-11T17:54:12.400Z,21.36
2023-05-11T17:56:44.190Z,21.20
2023-05-11T17:59:15.650Z,21.07
2023-05-11T18:01:47.595Z,21.21
2023-05-11T18:04:19.134Z,21.12
2023-05-11T18:06:50.963Z,21.11
2023-05-11T18:09:22.417Z,21.00
2023-05-11T18:11:54.232Z,20.89
2023-05-11T18:14:26.121Z,20.76
2023-05-11T18:16:57.790Z,20.65
2023-05-11T18:19:29.710Z,20.73
2023-05-11T18:22:01.202Z,20.61
2023-05-11T18:24:32.681Z,20.63
2023-05-11T18:27:04.140Z,20.55
2023-05-11T18:29:35.599Z,20.55
2023-05-11T18:32:07.071Z,20.45
2023-05-11T18:34:38.660Z,20.34
2023-05-11T18:37:10.149Z,20.26
2023-05-11T18:39:41.844Z,20.20
2023-05-11T18:42:13.324Z,20.11
2023-05-11T18:44:45.226Z,20.14
2023-05-11T18:47:16.758Z,20.09
2023-05-11T18:49:49.209Z,20.08
2023-05-11T18:52:21.054Z,20.05
2023-05-11T18:54:52.521Z,19.98
2023-05-11T18:57:24.374Z,19.94
2023-05-11T18:59:55.874Z,19.87
2023-05-11T19:02:27.458Z,19.84
2023-05-11T19:04:58.990Z,19.89
2023-05-11T19:07:30.713Z,19.84
2023-05-11T19:10:02.210Z,19.82
2023-05-11T19:12:33.692Z,19.81
2023-05-11T19:15:05.550Z,19.74
2023-05-11T19:17:37.112Z,19.65
2023-05-11T19:20:09.307Z,19.66
2023-05-11T19:22:40.791Z,19.62
2023-05-11T19:25:12.780Z,19.54
2023-05-11T19:27:44.259Z,19.51
2023-05-11T19:30:16.102Z,19.51
2023-05-11T19:32:47.599Z,19.46
2023-05-11T19:35:19.316Z,19.43
2023-05-11T19:37:50.772Z,19.40
2023-05-11T19:42:56.898Z,19.28
2023-05-11T19:45:28.733Z,19.22
2023-05-11T19:48:00.307Z,19.22
2023-05-11T19:50:31.863Z,19.25
2023-05-11T19:53:03.340Z,19.19
2023-05-11T19:55:34.877Z,19.15
2023-05-11T19:58:06.602Z,19.11
2023-05-11T20:00:38.068Z,19.09
2023-05-11T20:03:10.100Z,19.05
2023-05-11T20:05:41.662Z,18.99
2023-05-11T20:08:13.257Z,19.01
2023-05-11T20:10:44.712Z,18.91
2023-05-11T20:13:16.401Z,18.87
2023-05-11T20:15:47.869Z,18.90
2023-05-11T20:18:19.794Z,18.85
2023-05-11T20:20:51.281Z,18.83
2023-05-11T20:23:23.204Z,18.83
2023-05-11T20:25:55.004Z,18.80
2023-05-11T20:28:26.467Z,18.75
2023-05-11T20:30:58.250Z,18.74
2023-05-11T20:36:04.338Z,18.66
2023-05-11T20:38:35.792Z,18.63
2023-05-11T20:41:07.266Z,18.62
2023-05-11T20:43:38.705Z,18.58
2023-05-11T20:46:10.460Z,18.57
2023-05-11T20:48:43.746Z,18.55
2023-05-11T20:51:18.656Z,18.52
2023-05-11T20:53:50.441Z,18.48
2023-05-11T20:56:22.238Z,18.43
2023-05-11T20:58:54.062Z,18.42
2023-05-11T21:01:25.570Z,18.34
2023-05-11T21:03:57.427Z,18.37
2023-05-11T21:06:28.872Z,18.38
2023-05-11T21:09:00.958Z,18.33
2023-05-11T21:11:32.425Z,18.33
2023-05-11T21:14:04.264Z,18.29
2023-05-11T21:16:35.790Z,18.26
2023-05-11T21:19:07.511Z,18.19
2023-05-11T21:21:39.086Z,18.17
2023-05-11T21:24:10.901Z,18.14
2023-05-11T21:26:42.722Z,18.13
2023-05-11T21:29:14.187Z,18.11
2023-05-11T21:31:45.643Z,18.07
2023-05-11T21:34:17.089Z,18.06
2023-05-11T21:36:48.603Z,18.01
2023-05-11T21:39:20.062Z,18.02
2023-05-11T21:41:51.873Z,17.96
2023-05-11T21:44:23.342Z,17.98
2023-05-11T21:46:55.368Z,17.95
2023-05-11T21:49:26.911Z,17.89
2023-05-11T21:51:58.712Z,17.90
2023-05-11T21:54:30.173Z,17.86
2023-05-11T21:57:01.945Z,17.85
2023-05-11T21:59:33.547Z,17.81
2023-05-11T22:02:05.265Z,17.82
2023-05-11T22:04:36.823Z,17.83
2023-05-11T22:07:08.282Z,17.82
2023-05-11T22:09:39.798Z,17.78
2023-05-11T22:12:11.271Z,17.78
2023-05-11T22:14:42.927Z,17.74
2023-05-11T22:17:14.399Z,17.73
2023-05-11T22:19:46.073Z,17.69
2023-05-11T22:22:17.509Z,17.66
2023-05-11T22:24:49.253Z,17.59
2023-05-11T22:27:20.684Z,17.55
2023-05-11T22:29:52.471Z,17.52
2023-05-11T22:32:24.375Z,17.45
2023-05-11T22:34:56.031Z,17.40
2023-05-11T22:37:27.865Z,17.34
2023-05-11T22:39:59.327Z,17.28
2023-05-11T22:42:31.329Z,17.30
2023-05-11T22:45:02.803Z,17.28
2023-05-11T22:47:34.348Z,17.25
2023-05-11T22:50:05.813Z,17.19
2023-05-11T22:52:37.286Z,17.14
2023-05-11T22:55:08.734Z,17.12
2023-05-11T22:57:40.181Z,17.10
2023-05-11T23:00:11.641Z,17.02
2023-05-11T23:02:43.640Z,17.00
2023-05-11T23:05:15.151Z,16.92
2023-05-11T23:07:46.970Z,16.92
2023-05-11T23:10:18.961Z,16.86
2023-05-11T23:12:50.718Z,16.83
2023-05-11T23:15:22.405Z,16.81
2023-05-11T23:17:53.905Z,16.78
2023-05-11T23:20:25.796Z,16.71
2023-05-11T23:22:57.263Z,16.68
2023-05-11T23:25:29.035Z,16.64
2023-05-11T23:28:00.517Z,16.57
2023-05-11T23:30:32.483Z,16.52
2023-05-11T23:33:04.029Z,16.51
2023-05-11T23:35:35.578Z,16.45
2023-05-11T23:38:07.514Z,16.44
2023-05-11T23:40:39.005Z,16.40
2023-05-11T23:43:10.808Z,16.36
2023-05-11T23:45:42.287Z,16.40
2023-05-11T23:48:14.003Z,16.31
2023-05-11T23:50:45.535Z,16.25
2023-05-11T23:53:17.320Z,16.24
2023-05-11T23:55:48.778Z,16.18
2023-05-11T23:58:20.578Z,16.16
